Time;durP1;ratioP1;P1;durP2;ratioP2;P2;SDS_P1;SDS_P2;PMS_P1;PMS_P2;Temp;Humidity;BMP_temperature;BMP_pressure;BME280_temperature;BME280_humidity;BME280_pressure;Samples;Min_cycle;Max_cycle;Signal;HPM_P1;HPM_P2
2024/01/14 00:01:45;;;;;;;18.15;4.65;;;8.40;99.90;;;;;;5060713;28;20043;-78
2024/01/14 00:04:10;;;;;;;18.05;3.47;;;8.50;99.90;;;;;;5052283;28;20051;-76
2024/01/14 00:06:36;;;;;;;18.15;3.70;;;8.50;99.90;;;;;;5069863;28;20074;-78
2024/01/14 00:09:02;;;;;;;16.35;3.80;;;9.20;99.90;;;;;;5069014;28;20479;-78
2024/01/14 00:11:28;;;;;;;19.42;3.78;;;9.20;99.90;;;;;;5048948;28;20103;-79
2024/01/14 00:13:53;;;;;;;18.70;4.22;;;9.20;99.90;;;;;;5042202;28;20037;-76
2024/01/14 00:16:19;;;;;;;23.92;4.25;;;9.30;99.90;;;;;;5069887;28;20561;-77
2024/01/14 00:18:45;;;;;;;14.50;3.63;;;8.50;99.90;;;;;;5052089;28;20040;-76
2024/01/14 00:21:10;;;;;;;16.80;3.78;;;8.50;99.90;;;;;;5033484;28;20127;-77
2024/01/14 00:23:36;;;;;;;16.00;3.40;;;8.40;99.90;;;;;;5035482;28;20047;-77
2024/01/14 00:26:02;;;;;;;14.85;3.15;;;9.00;99.90;;;;;;5052578;28;20043;-75
2024/01/14 00:28:28;;;;;;;14.18;2.80;;;8.40;99.90;;;;;;5067989;28;20036;-78
2024/01/14 00:30:53;;;;;;;11.05;2.50;;;8.30;99.90;;;;;;5066914;28;20056;-79
2024/01/14 00:33:19;;;;;;;13.93;2.83;;;9.00;99.90;;;;;;5053452;28;20047;-75
2024/01/14 00:35:45;;;;;;;14.88;2.92;;;8.70;99.90;;;;;;5032810;28;20052;-77
2024/01/14 00:38:11;;;;;;;14.20;2.53;;;9.00;99.90;;;;;;5090362;28;20473;-76
2024/01/14 00:40:37;;;;;;;10.07;2.72;;;8.20;99.90;;;;;;5049054;28;20043;-80
2024/01/14 00:43:03;;;;;;;14.95;3.40;;;8.60;99.90;;;;;;5053394;28;20041;-75
2024/01/14 00:45:29;;;;;;;8.80;1.92;;;8.50;99.90;;;;;;5052460;28;20048;-78
2024/01/14 00:47:54;;;;;;;9.40;2.42;;;9.00;99.90;;;;;;5052611;28;20033;-79
2024/01/14 00:50:21;;;;;;;11.27;2.42;;;9.00;99.90;;;;;;5052141;28;20052;-78
2024/01/14 00:52:47;;;;;;;18.45;2.80;;;8.90;99.90;;;;;;5069298;28;20080;-76
2024/01/14 00:55:13;;;;;;;10.98;2.58;;;8.20;99.90;;;;;;5052443;28;20483;-80
2024/01/14 00:57:39;;;;;;;14.18;2.78;;;8.60;99.90;;;;;;5068982;28;20081;-76
2024/01/14 01:00:09;;;;;;;11.85;2.47;;;9.60;99.90;;;;;;5032112;28;20067;-77
2024/01/14 01:02:35;;;;;;;15.35;2.65;;;8.60;99.90;;;;;;5064786;28;20485;-77
2024/01/14 01:05:02;;;;;;;15.77;3.03;;;8.80;99.90;;;;;;5066198;28;20451;-77
2024/01/14 01:07:27;;;;;;;15.77;2.78;;;8.80;99.90;;;;;;5068740;28;20135;-76
2024/01/14 01:09:53;;;;;;;12.20;2.90;;;8.00;99.90;;;;;;5051478;28;20048;-79
2024/01/14 01:12:19;;;;;;;14.85;2.88;;;8.80;99.90;;;;;;5033765;28;20044;-76
2024/01/14 01:14:46;;;;;;;17.65;2.63;;;8.60;99.90;;;;;;5049026;28;20526;-76
2024/01/14 01:17:11;;;;;;;16.30;3.03;;;8.70;99.90;;;;;;5047410;28;20047;-77
2024/01/14 01:19:37;;;;;;;15.65;2.63;;;8.10;99.90;;;;;;5052237;28;20038;-78
2024/01/14 01:22:03;;;;;;;14.38;3.33;;;7.90;99.90;;;;;;5048203;28;20451;-76
2024/01/14 01:24:28;;;;;;;19.38;3.13;;;8.60;99.90;;;;;;5053027;28;20386;-77
2024/01/14 01:26:54;;;;;;;17.42;2.65;;;8.20;99.90;;;;;;5051669;28;20393;-77
2024/01/14 01:29:20;;;;;;;17.10;3.00;;;8.50;99.90;;;;;;5052014;28;20036;-80
2024/01/14 01:31:46;;;;;;;12.32;2.80;;;8.20;99.90;;;;;;5041859;28;20095;-74
2024/01/14 01:34:11;;;;;;;14.80;2.92;;;8.40;99.90;;;;;;5048998;28;20135;-74
2024/01/14 01:36:37;;;;;;;15.18;3.05;;;7.90;99.90;;;;;;5036725;28;20048;-76
2024/01/14 01:39:03;;;;;;;8.50;2.20;;;7.90;99.90;;;;;;5051016;28;20040;-78
2024/01/14 01:41:28;;;;;;;9.93;2.22;;;7.80;99.90;;;;;;5064740;28;20044;-76
2024/01/14 01:43:54;;;;;;;12.82;2.40;;;8.40;99.90;;;;;;5051703;28;20036;-76
2024/01/14 01:46:20;;;;;;;15.82;2.60;;;7.90;99.90;;;;;;5051988;28;20036;-75
2024/01/14 01:48:46;;;;;;;12.73;2.60;;;8.40;99.90;;;;;;5067627;28;20040;-76
2024/01/14 01:51:13;;;;;;;12.75;2.50;;;8.40;99.90;;;;;;5050867;28;20055;-76
2024/01/14 01:53:40;;;;;;;20.55;2.78;;;7.80;99.90;;;;;;5065494;28;20040;-78
2024/01/14 01:56:06;;;;;;;13.10;3.15;;;8.40;99.90;;;;;;5051873;28;20044;-77
2024/01/14 01:58:31;;;;;;;12.93;3.15;;;7.90;99.90;;;;;;5051433;28;20508;-76
2024/01/14 02:00:58;;;;;;;18.00;2.90;;;7.90;99.90;;;;;;5067822;28;20079;-77
2024/01/14 02:03:24;;;;;;;15.07;2.20;;;7.70;99.90;;;;;;5023064;28;20037;-80
2024/01/14 02:05:54;;;;;;;14.30;2.65;;;8.10;99.90;;;;;;5015036;28;20074;-76
2024/01/14 02:08:20;;;;;;;18.13;3.28;;;7.80;99.90;;;;;;5058829;28;20036;-77
2024/01/14 02:10:46;;;;;;;16.95;3.22;;;8.40;99.90;;;;;;5050919;28;20051;-76
2024/01/14 02:13:12;;;;;;;15.07;3.10;;;8.40;99.90;;;;;;5065775;28;20045;-77
2024/01/14 02:15:37;;;;;;;16.52;3.20;;;7.70;99.90;;;;;;5050154;28;20677;-78
2024/01/14 02:18:03;;;;;;;14.60;2.67;;;8.20;99.90;;;;;;5051159;28;20539;-75
2024/01/14 02:20:29;;;;;;;13.82;3.10;;;8.10;99.90;;;;;;5051551;28;20127;-76
2024/01/14 02:22:56;;;;;;;12.45;2.55;;;7.50;99.90;;;;;;5066558;28;20123;-78
2024/01/14 02:25:22;;;;;;;13.95;3.42;;;8.40;99.90;;;;;;5050035;28;20604;-79
2024/01/14 02:27:49;;;;;;;13.05;2.55;;;7.40;99.90;;;;;;5050746;28;20036;-77
2024/01/14 02:30:16;;;;;;;11.40;2.80;;;7.40;99.90;;;;;;5068405;28;20504;-75
2024/01/14 02:32:42;;;;;;;11.88;2.95;;;7.60;99.90;;;;;;5050365;28;20044;-77
2024/01/14 02:35:08;;;;;;;12.32;2.92;;;8.30;99.90;;;;;;5033758;28;20164;-80
2024/01/14 02:37:43;;;;;;;13.40;3.55;;;8.20;99.90;;;;;;5051459;28;20079;-78
2024/01/14 02:40:10;;;;;;;11.73;2.67;;;7.40;99.90;;;;;;5050557;28;20132;-78
2024/01/14 02:42:35;;;;;;;23.48;3.50;;;8.20;99.90;;;;;;5067208;28;20045;-79
2024/01/14 02:45:01;;;;;;;11.40;3.05;;;7.40;99.90;;;;;;5065292;28;20043;-80
2024/01/14 02:47:27;;;;;;;16.13;3.25;;;7.90;99.90;;;;;;5031493;28;20033;-77
2024/01/14 02:49:53;;;;;;;17.40;3.78;;;8.10;99.90;;;;;;5034431;28;20659;-79
2024/01/14 02:52:19;;;;;;;16.38;3.05;;;7.20;99.90;;;;;;5070996;28;20048;-79
2024/01/14 02:54:44;;;;;;;15.60;3.55;;;8.00;99.90;;;;;;5048750;28;20050;-80
2024/01/14 02:57:10;;;;;;;17.60;4.28;;;8.00;99.90;;;;;;5070429;28;20040;-77
2024/01/14 02:59:37;;;;;;;15.10;3.40;;;8.30;99.90;;;;;;5070341;28;20042;-80
2024/01/14 03:02:03;;;;;;;18.65;3.05;;;8.30;99.90;;;;;;5036238;28;20455;-78
2024/01/14 03:04:29;;;;;;;22.10;3.28;;;8.30;99.90;;;;;;5068362;28;20162;-75
2024/01/14 03:06:55;;;;;;;18.85;3.42;;;8.10;99.90;;;;;;5036275;28;20048;-79
2024/01/14 03:09:21;;;;;;;13.32;3.30;;;8.20;99.90;;;;;;5070120;28;20037;-81
2024/01/14 03:11:47;;;;;;;18.23;3.58;;;6.80;99.90;;;;;;5035913;28;20044;-76
2024/01/14 03:14:13;;;;;;;16.13;3.03;;;6.80;99.90;;;;;;5068479;28;20042;-78
2024/01/14 03:16:38;;;;;;;14.80;2.63;;;7.80;99.90;;;;;;5058666;28;20051;-79
2024/01/14 03:19:04;;;;;;;14.07;2.83;;;6.90;99.90;;;;;;5069527;28;20045;-79
2024/01/14 03:21:30;;;;;;;15.77;3.17;;;8.30;99.90;;;;;;5052851;28;20052;-78
2024/01/14 03:23:55;;;;;;;14.38;3.30;;;7.00;99.90;;;;;;5070194;28;20033;-81
2024/01/14 03:26:21;;;;;;;13.00;2.53;;;7.10;99.90;;;;;;5050600;28;20382;-76
2024/01/14 03:28:47;;;;;;;13.07;2.58;;;8.10;99.90;;;;;;5054281;28;20047;-78
2024/01/14 03:31:17;;;;;;;17.48;3.13;;;6.70;99.90;;;;;;5053957;28;20404;-77
2024/01/14 03:33:43;;;;;;;22.83;3.58;;;8.10;99.90;;;;;;5071400;28;20048;-79
2024/01/14 03:36:15;;;;;;;19.83;4.28;;;8.10;99.90;;;;;;5053195;28;20045;-76
2024/01/14 03:38:41;;;;;;;18.63;3.33;;;6.70;99.90;;;;;;5070835;28;20043;-78
2024/01/14 03:41:07;;;;;;;16.98;4.00;;;8.10;99.90;;;;;;5069836;28;20355;-78
2024/01/14 03:43:33;;;;;;;19.13;3.47;;;7.90;99.90;;;;;;5071210;28;20098;-77
2024/01/14 03:45:58;;;;;;;18.20;3.70;;;7.20;99.90;;;;;;5067421;28;20045;-74
2024/01/14 03:48:24;;;;;;;22.42;3.55;;;8.20;99.90;;;;;;5054095;28;20071;-80
2024/01/14 03:50:49;;;;;;;20.23;3.35;;;8.20;99.90;;;;;;5053742;28;20105;-80
2024/01/14 03:53:15;;;;;;;20.80;3.08;;;8.10;99.90;;;;;;5070278;28;20131;-79
2024/01/14 03:55:42;;;;;;;23.25;4.03;;;6.60;99.90;;;;;;5068526;28;20048;-77
2024/01/14 03:58:08;;;;;;;15.07;3.60;;;6.90;99.90;;;;;;5069012;28;20040;-78
2024/01/14 04:00:34;;;;;;;14.52;3.67;;;8.20;99.90;;;;;;5055570;28;20102;-75
2024/01/14 04:02:59;;;;;;;15.77;3.65;;;8.10;99.90;;;;;;5052611;28;20033;-75
2024/01/14 04:05:25;;;;;;;18.08;3.50;;;8.10;99.90;;;;;;5053752;28;20699;-80
2024/01/14 04:07:51;;;;;;;25.55;3.95;;;8.10;99.90;;;;;;5049478;28;20032;-76
2024/01/14 04:10:16;;;;;;;15.43;2.92;;;6.60;99.90;;;;;;5069812;28;20044;-75
2024/01/14 04:12:42;;;;;;;22.15;3.75;;;7.40;99.90;;;;;;5069447;28;20040;-77
2024/01/14 04:15:09;;;;;;;20.15;5.00;;;6.60;99.90;;;;;;5052256;28;20460;-74
2024/01/14 04:17:34;;;;;;;16.45;4.05;;;8.10;99.90;;;;;;5063374;28;20044;-74
2024/01/14 04:20:01;;;;;;;12.75;2.95;;;7.00;99.90;;;;;;5035588;28;20416;-78
2024/01/14 04:22:26;;;;;;;18.58;3.92;;;6.60;99.90;;;;;;5068770;28;20058;-75
2024/01/14 04:24:52;;;;;;;18.67;3.05;;;6.60;99.90;;;;;;5092792;28;20374;-81
2024/01/14 04:27:18;;;;;;;16.33;3.25;;;8.10;99.90;;;;;;5048512;28;20520;-80
2024/01/14 04:29:44;;;;;;;16.17;3.47;;;6.70;99.90;;;;;;5052857;28;20085;-79
2024/01/14 04:32:10;;;;;;;16.88;3.78;;;8.50;99.90;;;;;;5068476;28;20048;-75
2024/01/14 04:34:36;;;;;;;20.40;3.40;;;7.10;99.90;;;;;;5052060;28;20105;-77
2024/01/14 04:37:02;;;;;;;24.40;3.72;;;8.30;99.90;;;;;;5067545;28;20739;-79
2024/01/14 04:39:28;;;;;;;16.33;3.30;;;8.20;99.90;;;;;;5051953;28;20059;-74
2024/01/14 04:41:54;;;;;;;13.18;3.05;;;8.40;99.90;;;;;;5051440;28;20374;-77
2024/01/14 04:44:20;;;;;;;17.17;3.78;;;7.10;99.90;;;;;;5052339;28;20040;-76
2024/01/14 04:46:46;;;;;;;13.60;3.40;;;7.00;99.90;;;;;;5068892;28;20037;-77
2024/01/14 04:49:11;;;;;;;15.57;4.07;;;8.30;99.90;;;;;;5060330;28;20451;-81
2024/01/14 04:51:38;;;;;;;24.45;5.40;;;6.70;99.90;;;;;;5052919;28;20036;-77
2024/01/14 04:54:04;;;;;;;20.70;4.88;;;8.10;99.90;;;;;;5068720;28;20485;-80
2024/01/14 04:56:30;;;;;;;21.00;4.13;;;6.60;99.90;;;;;;5032640;28;20051;-78
2024/01/14 04:58:56;;;;;;;22.05;4.75;;;8.30;99.90;;;;;;5085961;28;20040;-81
2024/01/14 05:01:21;;;;;;;21.50;5.18;;;8.00;99.90;;;;;;5069041;28;20067;-79
2024/01/14 05:03:47;;;;;;;21.08;5.28;;;6.60;99.90;;;;;;5069047;28;20036;-80
2024/01/14 05:06:13;;;;;;;17.38;3.58;;;6.50;99.90;;;;;;5052446;28;20045;-78
2024/01/14 05:08:42;;;;;;;21.33;4.22;;;6.90;99.90;;;;;;5063097;28;20116;-82
2024/01/14 05:11:08;;;;;;;22.27;4.30;;;8.00;99.90;;;;;;5051312;28;20071;-79
2024/01/14 05:13:35;;;;;;;22.38;5.07;;;7.40;99.90;;;;;;5032518;28;20044;-78
2024/01/14 05:16:00;;;;;;;17.88;3.72;;;7.90;99.90;;;;;;5070327;28;20049;-81
2024/01/14 05:18:26;;;;;;;24.15;4.40;;;6.40;99.90;;;;;;5033678;28;20110;-79
2024/01/14 05:20:52;;;;;;;18.30;3.78;;;7.80;99.90;;;;;;5068548;28;20400;-77
2024/01/14 05:23:18;;;;;;;16.08;3.45;;;7.00;99.90;;;;;;5068314;28;20052;-76
2024/01/14 05:25:44;;;;;;;27.25;4.75;;;7.30;99.90;;;;;;5051787;28;20029;-78
2024/01/14 05:28:10;;;;;;;21.08;4.28;;;7.90;99.90;;;;;;5068529;28;20032;-77
2024/01/14 05:30:35;;;;;;;15.07;3.50;;;7.70;99.90;;;;;;5065703;28;20041;-77
2024/01/14 05:33:01;;;;;;;19.65;3.35;;;7.00;99.90;;;;;;5050787;28;20086;-77
2024/01/14 05:35:27;;;;;;;18.27;3.85;;;8.00;99.90;;;;;;5067240;28;20036;-79
2024/01/14 05:37:53;;;;;;;14.60;3.55;;;7.30;99.90;;;;;;5051061;28;20397;-75
2024/01/14 05:40:19;;;;;;;17.42;4.75;;;6.00;99.90;;;;;;5029852;28;20041;-76
2024/01/14 05:42:45;;;;;;;20.30;3.40;;;7.60;99.90;;;;;;5050381;28;20037;-76
2024/01/14 05:45:12;;;;;;;22.33;3.58;;;7.00;99.90;;;;;;5095191;28;20040;-75
2024/01/14 05:47:38;;;;;;;23.58;4.22;;;7.40;99.90;;;;;;5050997;28;20144;-73
2024/01/14 05:50:05;;;;;;;30.15;4.82;;;6.00;99.90;;;;;;5063513;28;20042;-77
2024/01/14 05:52:31;;;;;;;18.05;4.20;;;7.50;99.90;;;;;;5067538;28;20041;-76
2024/01/14 05:54:56;;;;;;;20.48;5.30;;;7.60;99.90;;;;;;5049910;28;20043;-75
2024/01/14 05:57:22;;;;;;;22.67;5.78;;;7.20;99.90;;;;;;5033690;28;20044;-75
2024/01/14 05:59:48;;;;;;;19.92;5.30;;;5.80;99.90;;;;;;5061776;28;20116;-75
2024/01/14 06:02:13;;;;;;;18.00;4.43;;;7.20;99.90;;;;;;5049936;28;20122;-75
2024/01/14 06:04:39;;;;;;;18.83;4.30;;;7.50;99.90;;;;;;5050250;28;20056;-76
2024/01/14 06:07:05;;;;;;;15.85;3.95;;;5.40;99.90;;;;;;5066868;28;20036;-79
2024/01/14 06:09:30;;;;;;;20.02;3.97;;;7.50;99.90;;;;;;5066149;28;20032;-76
2024/01/14 06:11:56;;;;;;;18.00;4.18;;;5.50;99.90;;;;;;5065306;28;20813;-76
2024/01/14 06:14:22;;;;;;;13.18;3.65;;;5.60;99.90;;;;;;5067028;28;20123;-75
2024/01/14 06:16:47;;;;;;;17.30;3.90;;;7.10;99.90;;;;;;5050054;28;20036;-76
2024/01/14 06:19:13;;;;;;;17.05;4.93;;;7.50;99.90;;;;;;5048983;28;20058;-73
2024/01/14 06:21:42;;;;;;;19.65;4.15;;;5.60;99.90;;;;;;5030714;28;20063;-74
2024/01/14 06:24:09;;;;;;;19.65;4.55;;;7.50;99.90;;;;;;5046826;28;20040;-76
2024/01/14 06:26:35;;;;;;;18.88;4.03;;;7.60;99.90;;;;;;5050206;28;20532;-75
2024/01/14 06:29:02;;;;;;;15.20;3.42;;;5.70;99.90;;;;;;5049511;28;20438;-75
2024/01/14 06:31:27;;;;;;;19.10;3.78;;;6.50;99.90;;;;;;5064131;28;20072;-75
2024/01/14 06:33:53;;;;;;;16.35;3.53;;;6.20;99.90;;;;;;5050136;28;20072;-77
2024/01/14 06:36:19;;;;;;;21.10;3.47;;;5.80;99.90;;;;;;5066682;28;20053;-75
2024/01/14 06:38:45;;;;;;;19.40;3.75;;;7.70;99.90;;;;;;5049847;28;20040;-78
2024/01/14 06:41:20;;;;;;;15.93;3.67;;;6.10;99.90;;;;;;5047696;28;20403;-76
2024/01/14 06:43:48;;;;;;;14.32;4.03;;;6.70;99.90;;;;;;5066745;28;20639;-73
2024/01/14 06:46:15;;;;;;;18.48;3.75;;;7.40;99.90;;;;;;5091009;28;20044;-78
2024/01/14 06:48:41;;;;;;;20.92;3.58;;;7.70;99.90;;;;;;5049929;28;20082;-78
2024/01/14 06:51:07;;;;;;;13.95;3.05;;;7.90;99.90;;;;;;5049238;28;20037;-75
2024/01/14 06:53:33;;;;;;;18.13;3.20;;;8.00;99.90;;;;;;5066557;28;20469;-74
2024/01/14 06:56:00;;;;;;;18.40;3.10;;;6.30;99.90;;;;;;5030992;28;20056;-75
2024/01/14 06:58:29;;;;;;;16.50;3.63;;;7.60;99.90;;;;;;5032788;28;20041;-75
2024/01/14 07:00:54;;;;;;;15.15;3.50;;;7.60;99.90;;;;;;5043379;28;20047;-78
2024/01/14 07:03:20;;;;;;;23.90;3.47;;;7.60;99.90;;;;;;5058829;28;20037;-73
2024/01/14 07:05:46;;;;;;;25.17;4.75;;;6.00;99.90;;;;;;5067737;28;20048;-76
2024/01/14 07:08:12;;;;;;;21.20;4.50;;;5.70;99.90;;;;;;5050830;28;20049;-78
2024/01/14 07:10:37;;;;;;;20.52;3.80;;;7.70;99.90;;;;;;5067239;28;20123;-79
2024/01/14 07:13:03;;;;;;;21.42;3.85;;;7.70;99.90;;;;;;5035749;28;20037;-77
2024/01/14 07:15:29;;;;;;;28.50;3.88;;;6.00;99.90;;;;;;5050602;28;20100;-76
2024/01/14 07:17:54;;;;;;;16.88;3.15;;;7.30;99.90;;;;;;5067525;28;20409;-73
2024/01/14 07:20:21;;;;;;;19.75;3.00;;;7.60;99.90;;;;;;5067144;28;20036;-75
2024/01/14 07:22:46;;;;;;;15.90;3.28;;;7.60;99.90;;;;;;5063974;28;20043;-81
2024/01/14 07:25:12;;;;;;;15.43;3.20;;;7.20;99.90;;;;;;5065292;28;20477;-76
2024/01/14 07:27:38;;;;;;;17.25;3.40;;;5.80;99.90;;;;;;5050390;28;20036;-75
2024/01/14 07:30:05;;;;;;;24.50;4.10;;;7.40;99.90;;;;;;5050711;28;20040;-75
2024/01/14 07:32:31;;;;;;;19.80;3.65;;;7.40;99.90;;;;;;5048885;28;20389;-75
2024/01/14 07:34:57;;;;;;;25.23;4.13;;;5.90;99.90;;;;;;5044917;28;20036;-76
2024/01/14 07:37:23;;;;;;;17.88;4.80;;;5.80;99.90;;;;;;5053274;28;20516;-76
2024/01/14 07:39:49;;;;;;;30.45;6.07;;;5.80;99.90;;;;;;5054081;28;20048;-77
2024/01/14 07:42:16;;;;;;;24.75;5.75;;;7.50;99.90;;;;;;5054027;28;20512;-77
2024/01/14 07:44:41;;;;;;;19.58;6.00;;;5.80;99.90;;;;;;5049061;28;20036;-78
2024/01/14 07:47:07;;;;;;;25.33;7.43;;;7.30;99.90;;;;;;5070470;28;20119;-78
2024/01/14 07:49:33;;;;;;;27.73;6.00;;;6.90;99.90;;;;;;5054368;28;20045;-80
2024/01/14 07:51:59;;;;;;;20.48;5.07;;;6.20;99.90;;;;;;5054125;28;20044;-78
2024/01/14 07:54:25;;;;;;;17.02;4.35;;;7.00;99.90;;;;;;5045576;28;20507;-78
2024/01/14 07:56:51;;;;;;;19.77;3.92;;;7.60;99.90;;;;;;5053392;28;20051;-77
2024/01/14 07:59:20;;;;;;;19.77;3.60;;;7.70;99.90;;;;;;5052446;28;20053;-80
2024/01/14 08:01:46;;;;;;;23.38;3.67;;;7.70;99.90;;;;;;5035299;28;20052;-76
2024/01/14 08:04:12;;;;;;;13.50;3.40;;;5.90;99.90;;;;;;5047368;28;20135;-78
2024/01/14 08:06:37;;;;;;;30.10;5.97;;;7.60;99.90;;;;;;5069299;28;20124;-78
2024/01/14 08:09:03;;;;;;;19.25;4.15;;;6.90;99.90;;;;;;5052240;28;20032;-79
2024/01/14 08:11:29;;;;;;;15.98;3.70;;;6.00;99.90;;;;;;5069753;28;20052;-76
2024/01/14 08:13:54;;;;;;;15.45;4.38;;;5.90;99.90;;;;;;5068269;28;20128;-77
2024/01/14 08:16:20;;;;;;;15.02;3.58;;;7.30;99.90;;;;;;5034556;28;20400;-78
2024/01/14 08:18:46;;;;;;;19.77;3.40;;;6.00;99.90;;;;;;5053143;28;20032;-77
2024/01/14 08:21:11;;;;;;;20.33;4.35;;;6.60;99.90;;;;;;5068321;28;20044;-80
2024/01/14 08:23:37;;;;;;;21.88;4.55;;;5.80;99.90;;;;;;5052823;28;20033;-77
2024/01/14 08:26:04;;;;;;;18.73;4.53;;;6.60;99.90;;;;;;5066949;28;20048;-76
2024/01/14 08:28:32;;;;;;;24.10;6.10;;;7.60;99.90;;;;;;5052819;28;20036;-75
2024/01/14 08:30:57;;;;;;;18.17;4.80;;;7.60;99.90;;;;;;5053004;28;20041;-76
2024/01/14 08:33:23;;;;;;;16.20;4.72;;;6.10;99.90;;;;;;5068761;28;20555;-75
2024/01/14 08:35:49;;;;;;;18.90;4.90;;;7.60;99.90;;;;;;5049735;28;20040;-80
2024/01/14 08:38:14;;;;;;;27.73;5.35;;;5.90;99.90;;;;;;5051082;28;20516;-74
2024/01/14 08:40:40;;;;;;;26.95;5.93;;;8.20;99.90;;;;;;5051390;28;20135;-74
2024/01/14 08:43:06;;;;;;;17.40;4.30;;;7.30;99.90;;;;;;5051447;28;20032;-75
2024/01/14 08:45:31;;;;;;;19.95;4.32;;;7.90;99.90;;;;;;5088243;28;20102;-76
2024/01/14 08:47:57;;;;;;;16.33;3.42;;;8.50;99.90;;;;;;5051208;28;20127;-76
2024/01/14 08:50:23;;;;;;;13.48;4.20;;;6.80;99.90;;;;;;5050938;28;20039;-76
2024/01/14 08:52:48;;;;;;;16.38;4.07;;;8.40;99.90;;;;;;5051101;28;20361;-73
2024/01/14 08:55:14;;;;;;;13.63;3.83;;;6.30;99.90;;;;;;5049269;28;20032;-80
2024/01/14 08:57:40;;;;;;;18.02;3.60;;;6.30;99.90;;;;;;5051570;28;20040;-75
2024/01/14 09:00:08;;;;;;;19.88;4.32;;;7.10;99.90;;;;;;5034641;28;20413;-77
2024/01/14 09:02:34;;;;;;;17.02;3.38;;;8.50;99.90;;;;;;5067523;28;20053;-75
2024/01/14 09:05:00;;;;;;;15.23;3.80;;;8.50;99.90;;;;;;5013715;28;20768;-80
2024/01/14 09:07:26;;;;;;;19.48;3.53;;;7.30;99.90;;;;;;5050773;28;20381;-83
2024/01/14 09:09:52;;;;;;;14.80;3.17;;;6.60;99.90;;;;;;5068001;28;20067;-81
2024/01/14 09:12:17;;;;;;;12.93;3.10;;;6.50;99.90;;;;;;5051834;28;20504;-84
2024/01/14 09:14:43;;;;;;;10.90;2.97;;;8.40;99.90;;;;;;5032647;28;20710;-82
2024/01/14 09:17:10;;;;;;;18.25;3.00;;;7.90;99.90;;;;;;5046858;28;20119;-80
2024/01/14 09:19:36;;;;;;;13.48;2.97;;;8.10;99.90;;;;;;5034956;28;20729;-84
2024/01/14 09:22:01;;;;;;;15.77;3.20;;;8.40;99.90;;;;;;5051181;28;20085;-79
2024/01/14 09:24:27;;;;;;;11.63;2.33;;;6.20;99.90;;;;;;5050317;28;20044;-79
2024/01/14 09:26:53;;;;;;;11.50;3.47;;;8.10;99.90;;;;;;5060542;28;20133;-83
2024/01/14 09:29:18;;;;;;;11.00;2.38;;;6.70;99.90;;;;;;5067735;28;20051;-79
2024/01/14 09:31:44;;;;;;;14.90;3.15;;;8.30;99.90;;;;;;5026554;28;20116;-83
2024/01/14 09:34:10;;;;;;;50.25;7.10;;;6.90;99.90;;;;;;5033274;28;20401;-85
2024/01/14 09:36:38;;;;;;;11.52;2.45;;;10.60;99.90;;;;;;5068068;28;20055;-81
2024/01/14 09:39:03;;;;;;;14.27;3.30;;;10.00;99.90;;;;;;5050899;28;20032;-80
2024/01/14 09:41:46;;;;;;;13.43;3.20;;;9.50;99.90;;;;;;5050872;28;20385;-82
2024/01/14 09:44:15;;;;;;;45.30;6.80;;;9.30;99.90;;;;;;5087806;28;20037;-82
2024/01/14 09:46:44;;;;;;;13.68;2.85;;;8.60;99.90;;;;;;5067753;28;20032;-81
2024/01/14 09:49:11;;;;;;;10.18;2.60;;;11.10;99.90;;;;;;5065455;28;20041;-82
2024/01/14 09:51:37;;;;;;;10.45;2.63;;;8.70;99.90;;;;;;5050096;28;20036;-80
2024/01/14 09:54:03;;;;;;;10.68;2.88;;;13.20;99.90;;;;;;5049755;28;20488;-79
2024/01/14 09:56:35;;;;;;;7.70;2.47;;;9.40;99.90;;;;;;5049259;28;20085;-82
2024/01/14 09:59:02;;;;;;;12.02;2.60;;;11.60;99.90;;;;;;5049352;28;20056;-82
2024/01/14 10:01:33;;;;;;;11.50;2.40;;;9.30;91.30;;;;;;5050379;28;20562;-82
2024/01/14 10:04:03;;;;;;;10.55;2.33;;;11.40;93.10;;;;;;5056874;28;20370;-83
2024/01/14 10:06:29;;;;;;;12.18;2.30;;;9.90;58.80;;;;;;5024648;28;20411;-81
2024/01/14 10:08:57;;;;;;;7.50;2.10;;;9.80;75.70;;;;;;5068338;28;20404;-85
2024/01/14 10:11:23;;;;;;;9.90;2.08;;;10.20;58.70;;;;;;5045725;28;20068;-78
2024/01/14 10:13:49;;;;;;;11.13;2.38;;;12.00;1.00;;;;;;5054394;28;20065;-76
2024/01/14 10:16:16;;;;;;;10.75;2.63;;;12.10;1.00;;;;;;5036323;28;20472;-78
2024/01/14 10:18:42;;;;;;;9.13;2.22;;;12.90;1.00;;;;;;5054447;28;20041;-76
2024/01/14 10:21:09;;;;;;;9.05;2.05;;;13.10;1.00;;;;;;5056750;28;20844;-76
2024/01/14 10:23:37;;;;;;;8.35;2.13;;;13.50;99.90;;;;;;5035124;28;20029;-81
2024/01/14 10:26:03;;;;;;;7.50;2.50;;;9.90;99.90;;;;;;5050606;28;20037;-77
2024/01/14 10:28:32;;;;;;;8.00;2.40;;;10.10;99.90;;;;;;5058783;28;20041;-77
2024/01/14 10:31:00;;;;;;;9.48;3.00;;;13.70;1.00;;;;;;5066061;28;20085;-76
2024/01/14 10:33:26;;;;;;;10.30;2.80;;;13.20;99.90;;;;;;5066365;28;20052;-81
2024/01/14 10:35:52;;;;;;;7.22;2.33;;;11.20;99.90;;;;;;5066748;28;20045;-79
2024/01/14 10:38:21;;;;;;;10.90;2.97;;;10.30;99.90;;;;;;5064851;28;20051;-77
2024/01/14 10:40:47;;;;;;;10.13;2.17;;;12.10;99.90;;;;;;5050412;28;20041;-78
2024/01/14 10:43:13;;;;;;;7.82;1.77;;;14.50;99.90;;;;;;5030631;28;20035;-80
2024/01/14 10:45:39;;;;;;;7.00;2.40;;;12.50;99.90;;;;;;5047966;28;20032;-77
2024/01/14 10:48:10;;;;;;;10.50;2.47;;;13.90;99.90;;;;;;5065570;28;20036;-78
2024/01/14 10:50:36;;;;;;;9.23;1.77;;;11.40;83.50;;;;;;5064548;28;20036;-77
2024/01/14 10:53:07;;;;;;;5.20;1.63;;;11.70;99.90;;;;;;5047784;28;20074;-77
2024/01/14 10:55:49;;;;;;;6.47;1.90;;;11.60;99.90;;;;;;5049510;28;20101;-76
2024/01/14 10:58:37;;;;;;;6.32;2.38;;;11.50;99.90;;;;;;5089924;28;20048;-76
2024/01/14 11:01:07;;;;;;;6.47;1.65;;;11.00;81.80;;;;;;5063758;28;20063;-74
2024/01/14 11:03:33;;;;;;;7.32;2.08;;;12.60;50.20;;;;;;5073874;28;20131;-79
2024/01/14 11:05:59;;;;;;;7.97;1.75;;;13.10;78.60;;;;;;5049946;28;20059;-83
2024/01/14 11:08:26;;;;;;;5.32;1.90;;;13.40;50.00;;;;;;5050248;28;20041;-81
2024/01/14 11:10:53;;;;;;;6.20;1.92;;;12.70;99.90;;;;;;5068075;28;20098;-77
2024/01/14 11:13:25;;;;;;;7.43;2.42;;;11.60;99.90;;;;;;5063682;28;20083;-78
2024/01/14 11:16:13;;;;;;;8.95;2.47;;;9.60;99.90;;;;;;5066249;28;20071;-77
2024/01/14 11:18:57;;;;;;;8.65;2.03;;;11.60;99.90;;;;;;5047280;28;20028;-76
2024/01/14 11:21:42;;;;;;;8.82;2.30;;;12.30;99.90;;;;;;5052835;28;20388;-79
2024/01/14 11:24:08;;;;;;;9.93;2.25;;;8.80;99.90;;;;;;5071039;28;20041;-75
2024/01/14 11:26:33;;;;;;;10.98;2.15;;;10.10;99.90;;;;;;5049634;28;20396;-77
2024/01/14 11:29:01;;;;;;;10.30;2.50;;;11.50;99.90;;;;;;5054023;28;20409;-80
2024/01/14 11:32:04;;;;;;;12.10;2.92;;;10.80;99.90;;;;;;5068907;28;20052;-77
2024/01/14 11:34:57;;;;;;;10.65;2.60;;;11.40;99.90;;;;;;5093097;28;20045;-76
2024/01/14 11:37:40;;;;;;;11.45;2.53;;;11.20;1.00;;;;;;5075046;28;20045;-79
2024/01/14 11:40:06;;;;;;;7.07;2.05;;;10.90;1.00;;;;;;5069896;28;20041;-79
2024/01/14 11:42:32;;;;;;;11.43;2.40;;;8.20;1.00;;;;;;5069978;28;20503;-79
2024/01/14 11:45:02;;;;;;;10.98;2.75;;;8.20;1.00;;;;;;5070641;28;20043;-77
2024/01/14 11:47:41;;;;;;;11.20;2.47;;;10.70;1.00;;;;;;5064899;28;20036;-78
2024/01/14 11:50:09;;;;;;;12.68;3.17;;;11.00;1.00;;;;;;5052655;28;20048;-76
2024/01/14 11:52:51;;;;;;;15.93;2.95;;;10.90;1.00;;;;;;5050143;28;20113;-79
2024/01/14 11:55:18;;;;;;;9.10;2.38;;;8.90;1.00;;;;;;5091564;28;20155;-78
2024/01/14 11:57:45;;;;;;;10.00;2.50;;;10.60;1.00;;;;;;5050484;28;20036;-78
2024/01/14 12:00:12;;;;;;;10.73;2.72;;;8.20;1.00;;;;;;5051127;28;20090;-77
2024/01/14 12:02:38;;;;;;;10.02;2.90;;;9.60;1.00;;;;;;5050964;28;20044;-76
2024/01/14 12:05:21;;;;;;;8.57;2.70;;;7.90;1.00;;;;;;5049190;28;20056;-77
2024/01/14 12:07:47;;;;;;;10.98;3.40;;;10.50;1.00;;;;;;5063963;28;20491;-78
2024/01/14 12:10:14;;;;;;;8.77;2.97;;;7.70;1.00;;;;;;5068355;28;20068;-76
2024/01/14 12:12:41;;;;;;;10.07;2.75;;;7.90;1.00;;;;;;5047908;28;20047;-73
2024/01/14 12:15:08;;;;;;;8.10;2.33;;;10.90;1.00;;;;;;5066528;28;20024;-73
2024/01/14 12:17:34;;;;;;;8.48;2.42;;;11.00;1.00;;;;;;5067500;28;20525;-75
2024/01/14 12:20:00;;;;;;;10.25;2.42;;;10.40;1.00;;;;;;5066647;28;20037;-75
2024/01/14 12:22:26;;;;;;;12.50;3.00;;;11.00;1.00;;;;;;5049689;28;20068;-78
2024/01/14 12:24:52;;;;;;;13.73;3.13;;;10.80;1.00;;;;;;5051008;28;20064;-76
2024/01/14 12:27:18;;;;;;;10.95;3.00;;;8.80;1.00;;;;;;5050805;28;20068;-74
2024/01/14 12:29:43;;;;;;;11.90;2.75;;;11.10;1.00;;;;;;5062645;28;20090;-80
2024/01/14 12:32:10;;;;;;;6.75;2.42;;;10.90;1.00;;;;;;5069412;28;20037;-77
2024/01/14 12:34:43;;;;;;;7.60;2.10;;;9.10;1.00;;;;;;5035607;28;20063;-83
2024/01/14 12:37:10;;;;;;;13.52;2.92;;;11.70;1.00;;;;;;5052360;28;20091;-75
2024/01/14 12:39:36;;;;;;;8.40;2.28;;;8.80;1.00;;;;;;5067918;28;20044;-79
2024/01/14 12:42:02;;;;;;;12.27;2.70;;;8.80;1.00;;;;;;5068838;28;20053;-79
2024/01/14 12:44:36;;;;;;;9.55;2.85;;;11.20;1.00;;;;;;5052125;28;20378;-79
2024/01/14 12:47:05;;;;;;;10.90;2.72;;;8.80;1.00;;;;;;5052622;28;20761;-80